createdAt,value
2022-10-05T00:00:26.686Z,12.53
2022-10-05T00:03:21.227Z,12.57
2022-10-05T00:05:55.265Z,12.60
2022-10-05T00:08:34.865Z,12.62
2022-10-05T00:11:10.047Z,12.64
2022-10-05T00:13:44.005Z,12.65
2022-10-05T00:16:20.633Z,12.63
2022-10-05T00:18:55.527Z,12.62
2022-10-05T00:21:30.580Z,12.61
2022-10-05T00:24:08.870Z,12.60
2022-10-05T00:26:42.322Z,12.63
2022-10-05T00:29:22.648Z,12.64
2022-10-05T00:31:56.942Z,12.62
2022-10-05T00:34:34.941Z,12.57
2022-10-05T00:37:09.426Z,12.55
2022-10-05T00:39:44.023Z,12.55
2022-10-05T00:42:44.860Z,12.55
2022-10-05T00:45:23.272Z,12.55
2022-10-05T00:48:07.893Z,12.54
2022-10-05T00:50:57.043Z,12.53
2022-10-05T00:53:45.382Z,12.49
2022-10-05T00:56:34.664Z,12.49
2022-10-05T00:59:20.903Z,12.52
2022-10-05T01:02:01.763Z,12.54
2022-10-05T01:04:44.743Z,12.58
2022-10-05T01:07:28.265Z,12.56
2022-10-05T01:10:09.822Z,12.54
2022-10-05T01:12:51.445Z,12.51
2022-10-05T01:15:32.399Z,12.48
2022-10-05T01:18:39.427Z,12.45
2022-10-05T01:21:21.223Z,12.42
2022-10-05T01:24:09.540Z,12.42
2022-10-05T01:27:23.418Z,12.44
2022-10-05T01:30:03.129Z,12.42
2022-10-05T01:32:43.649Z,12.40
2022-10-05T01:35:40.999Z,12.39
2022-10-05T01:38:30.657Z,12.39
2022-10-05T01:41:13.557Z,12.39
2022-10-05T01:43:51.167Z,12.41
2022-10-05T01:46:33.602Z,12.44
2022-10-05T01:49:25.606Z,12.48
2022-10-05T01:52:10.672Z,12.46
2022-10-05T01:54:59.492Z,12.44
2022-10-05T01:57:45.483Z,12.45
2022-10-05T02:00:21.472Z,12.47
2022-10-05T02:03:03.463Z,12.46
2022-10-05T02:05:46.453Z,12.45
2022-10-05T02:08:28.991Z,12.43
2022-10-05T02:11:07.828Z,12.42
2022-10-05T02:13:45.287Z,12.41
2022-10-05T02:16:25.318Z,12.39
2022-10-05T02:19:04.116Z,12.36
2022-10-05T02:21:38.219Z,12.31
2022-10-05T02:24:15.513Z,12.27
2022-10-05T02:26:50.379Z,12.21
2022-10-05T02:29:26.172Z,12.15
2022-10-05T02:32:03.456Z,12.11
2022-10-05T02:34:41.869Z,12.05
2022-10-05T02:37:26.940Z,11.99
2022-10-05T02:40:25.283Z,11.99
2022-10-05T02:43:08.576Z,12.01
2022-10-05T02:45:52.619Z,12.01
2022-10-05T02:48:35.843Z,11.99
2022-10-05T02:51:18.053Z,11.96
2022-10-05T02:54:02.957Z,11.93
2022-10-05T02:56:45.119Z,11.90
2022-10-05T02:59:27.587Z,11.89
2022-10-05T03:02:09.175Z,11.90
2022-10-05T03:04:50.352Z,11.87
2022-10-05T03:07:31.327Z,11.85
2022-10-05T03:10:11.522Z,11.85
2022-10-05T03:13:02.585Z,11.84
2022-10-05T03:16:02.040Z,11.87
2022-10-05T03:18:50.455Z,11.84
2022-10-05T03:21:41.180Z,11.83
2022-10-05T03:24:41.653Z,11.82
2022-10-05T03:27:25.507Z,11.81
2022-10-05T03:30:05.087Z,11.82
2022-10-05T03:32:51.671Z,11.81
2022-10-05T03:35:30.242Z,11.85
2022-10-05T03:38:13.800Z,11.85
2022-10-05T03:40:56.145Z,11.87
2022-10-05T03:44:01.260Z,11.87
2022-10-05T03:46:50.496Z,11.87
2022-10-05T03:49:34.145Z,11.86
2022-10-05T03:52:14.301Z,11.86
2022-10-05T03:54:50.578Z,11.86
2022-10-05T03:57:26.401Z,11.84
2022-10-05T04:00:05.153Z,11.83
2022-10-05T04:02:51.713Z,11.82
2022-10-05T04:05:31.541Z,11.79
2022-10-05T04:08:10.635Z,11.78
2022-10-05T04:10:50.570Z,11.76
2022-10-05T04:13:31.050Z,11.76
2022-10-05T04:16:09.873Z,11.80
2022-10-05T04:18:49.813Z,11.84
2022-10-05T04:21:26.797Z,11.91
2022-10-05T04:24:05.049Z,11.98
2022-10-05T04:26:46.247Z,11.98
2022-10-05T04:29:30.904Z,11.90
2022-10-05T04:32:28.228Z,11.87
2022-10-05T04:35:20.968Z,11.87
2022-10-05T04:38:05.073Z,11.87
2022-10-05T04:40:52.204Z,11.84
2022-10-05T04:43:35.658Z,11.81
2022-10-05T04:46:22.850Z,11.79
2022-10-05T04:49:21.985Z,11.76
2022-10-05T04:52:07.925Z,11.72
2022-10-05T04:54:54.358Z,11.69
2022-10-05T04:57:36.290Z,11.67
2022-10-05T05:00:20.827Z,11.65
2022-10-05T05:03:17.879Z,11.62
2022-10-05T05:06:16.780Z,11.60
2022-10-05T05:09:26.708Z,11.62
2022-10-05T05:12:21.171Z,11.68
2022-10-05T05:15:17.640Z,11.72
2022-10-05T05:18:08.400Z,11.73
2022-10-05T05:20:55.471Z,11.74
2022-10-05T05:23:35.949Z,11.79
2022-10-05T05:26:18.759Z,11.79
2022-10-05T05:29:00.905Z,11.81
2022-10-05T05:31:45.395Z,11.83
2022-10-05T05:34:37.310Z,11.83
2022-10-05T05:37:21.344Z,11.81
2022-10-05T05:40:05.892Z,11.77
2022-10-05T05:42:49.100Z,11.73
2022-10-05T05:45:29.784Z,11.70
2022-10-05T05:48:11.168Z,11.69
2022-10-05T05:50:57.774Z,11.65
2022-10-05T05:53:38.965Z,11.66
2022-10-05T05:56:15.361Z,11.72
2022-10-05T05:58:55.858Z,11.76
2022-10-05T06:01:34.364Z,11.83
2022-10-05T06:04:18.030Z,11.85
2022-10-05T06:06:54.345Z,11.85
2022-10-05T06:09:35.152Z,11.91
2022-10-05T06:12:30.795Z,11.98
2022-10-05T06:15:22.966Z,12.04
2022-10-05T06:17:59.088Z,12.10
2022-10-05T06:20:41.599Z,12.13
2022-10-05T06:23:41.689Z,12.20
2022-10-05T06:26:30.026Z,12.25
2022-10-05T06:29:03.416Z,12.29
2022-10-05T06:31:59.271Z,12.31
2022-10-05T06:34:52.910Z,12.34
2022-10-05T06:37:40.402Z,12.39
2022-10-05T06:40:30.531Z,12.47
2022-10-05T06:43:16.702Z,12.52
2022-10-05T06:46:20.594Z,12.55
2022-10-05T06:49:20.564Z,12.61
2022-10-05T06:52:02.771Z,12.64
2022-10-05T06:54:49.868Z,12.71
2022-10-05T06:57:45.010Z,12.77
2022-10-05T07:00:25.196Z,12.81
2022-10-05T07:03:06.957Z,12.87
2022-10-05T07:05:53.716Z,12.90
2022-10-05T07:08:37.827Z,12.93
2022-10-05T07:11:25.256Z,12.93
2022-10-05T07:14:13.219Z,12.96
2022-10-05T07:17:03.307Z,13.02
2022-10-05T07:19:47.999Z,13.08
2022-10-05T07:22:37.496Z,13.10
2022-10-05T07:25:37.689Z,13.18
2022-10-05T07:28:15.666Z,13.28
2022-10-05T07:30:57.035Z,13.41
2022-10-05T07:33:36.290Z,13.60
2022-10-05T07:36:45.613Z,13.80
2022-10-05T07:39:42.062Z,14.05
2022-10-05T07:42:33.468Z,14.20
2022-10-05T07:45:19.306Z,14.31
2022-10-05T07:47:57.238Z,14.36
2022-10-05T07:50:37.550Z,14.38
2022-10-05T07:53:18.493Z,14.39
2022-10-05T07:55:56.521Z,14.39
2022-10-05T07:58:34.642Z,14.38
2022-10-05T08:01:19.594Z,14.43
2022-10-05T08:04:02.919Z,14.46
2022-10-05T08:06:52.017Z,14.50
2022-10-05T08:09:43.421Z,14.63
2022-10-05T08:12:36.480Z,14.79
2022-10-05T08:15:16.743Z,14.92
2022-10-05T08:17:57.519Z,14.99
2022-10-05T08:20:49.461Z,14.99
2022-10-05T08:23:27.469Z,15.08
2022-10-05T08:26:23.614Z,15.27
2022-10-05T08:29:13.759Z,15.40
2022-10-05T08:31:51.498Z,15.45
2022-10-05T08:34:32.405Z,15.47
2022-10-05T08:37:23.198Z,15.47
2022-10-05T08:40:06.251Z,15.54
2022-10-05T08:43:08.010Z,15.57
2022-10-05T08:46:10.728Z,15.65
2022-10-05T08:49:16.290Z,15.78
2022-10-05T08:52:14.641Z,15.93
2022-10-05T08:55:06.157Z,16.03
2022-10-05T08:58:22.925Z,16.06
2022-10-05T09:01:03.701Z,16.09
2022-10-05T09:04:21.960Z,16.14
2022-10-05T09:07:16.790Z,16.22
2022-10-05T09:10:43.079Z,16.24
2022-10-05T09:13:47.149Z,16.27
2022-10-05T09:16:40.288Z,16.33
2022-10-05T09:19:50.584Z,16.42
2022-10-05T09:22:38.642Z,16.46
2022-10-05T09:25:35.457Z,16.49
2022-10-05T09:28:25.104Z,16.51
2022-10-05T09:31:09.763Z,16.56
2022-10-05T09:34:41.599Z,16.60
2022-10-05T09:37:35.009Z,16.64
2022-10-05T09:40:45.097Z,16.70
2022-10-05T09:43:54.914Z,16.75
2022-10-05T09:47:03.039Z,16.80
2022-10-05T09:50:05.974Z,16.79
2022-10-05T09:53:12.667Z,16.81
2022-10-05T09:56:05.687Z,16.92
2022-10-05T09:59:06.171Z,17.07
2022-10-05T10:01:58.544Z,17.18
2022-10-05T10:04:45.411Z,17.21
2022-10-05T10:07:50.989Z,17.28
2022-10-05T10:10:52.770Z,17.40
2022-10-05T10:13:57.247Z,17.55
2022-10-05T10:16:50.087Z,17.68
2022-10-05T10:20:02.182Z,17.83
2022-10-05T10:23:25.620Z,17.96
2022-10-05T10:26:26.998Z,18.19
2022-10-05T10:29:21.915Z,18.50
2022-10-05T10:32:21.697Z,18.82
2022-10-05T10:35:19.201Z,18.85
2022-10-05T10:38:40.578Z,18.81
2022-10-05T10:41:54.892Z,18.69
2022-10-05T10:45:07.245Z,18.66
2022-10-05T10:47:52.372Z,18.96
2022-10-05T10:51:01.588Z,19.35
2022-10-05T10:54:03.041Z,19.57
2022-10-05T10:56:59.976Z,19.53
2022-10-05T11:00:15.980Z,19.50
2022-10-05T11:03:08.995Z,19.36
2022-10-05T11:06:12.239Z,19.36
2022-10-05T11:09:11.297Z,19.36
2022-10-05T11:12:14.171Z,19.25
2022-10-05T11:15:18.483Z,19.12
2022-10-05T11:18:07.874Z,19.09
2022-10-05T11:21:12.677Z,19.10
2022-10-05T11:24:17.026Z,19.18
2022-10-05T11:27:12.083Z,19.31
2022-10-05T11:30:14.618Z,19.44
2022-10-05T11:33:12.293Z,19.53
2022-10-05T11:36:10.596Z,19.73
2022-10-05T11:39:09.333Z,19.76
2022-10-05T11:42:12.800Z,19.60
2022-10-05T11:45:23.522Z,19.51
2022-10-05T11:48:29.859Z,19.44
2022-10-05T11:51:34.688Z,19.43
2022-10-05T11:54:52.196Z,19.47
2022-10-05T11:57:34.518Z,19.42
2022-10-05T12:00:17.793Z,19.42
2022-10-05T12:03:23.643Z,19.44
2022-10-05T12:06:07.981Z,19.48
2022-10-05T12:08:52.589Z,19.45
2022-10-05T12:11:48.961Z,19.35
2022-10-05T12:14:33.883Z,19.30
2022-10-05T12:17:16.026Z,19.25
2022-10-05T12:19:55.957Z,19.24
2022-10-05T12:22:43.464Z,19.14
2022-10-05T12:25:30.801Z,19.12
2022-10-05T12:28:10.819Z,19.09
2022-10-05T12:31:11.850Z,19.13
2022-10-05T12:33:53.863Z,19.13
2022-10-05T12:36:52.546Z,19.20
2022-10-05T12:39:41.071Z,19.27
2022-10-05T12:42:29.802Z,19.17
2022-10-05T12:45:25.775Z,19.07
2022-10-05T12:48:15.893Z,19.03
2022-10-05T12:50:56.905Z,19.09
2022-10-05T12:53:49.200Z,19.21
2022-10-05T12:56:39.051Z,19.30
2022-10-05T12:59:21.701Z,19.37
2022-10-05T13:02:30.255Z,19.46
2022-10-05T13:05:18.499Z,19.45
2022-10-05T13:08:22.971Z,19.44
2022-10-05T13:11:03.176Z,19.36
2022-10-05T13:13:58.102Z,19.28
2022-10-05T13:16:39.267Z,19.19
2022-10-05T13:19:40.953Z,19.08
2022-10-05T13:22:33.698Z,19.00
2022-10-05T13:25:27.674Z,18.89
2022-10-05T13:28:16.887Z,18.83
2022-10-05T13:30:59.934Z,18.78
2022-10-05T13:33:55.338Z,18.74
2022-10-05T13:36:40.086Z,18.68
2022-10-05T13:39:26.471Z,18.63
2022-10-05T13:42:06.399Z,18.59
2022-10-05T13:44:50.116Z,18.55
2022-10-05T13:47:32.482Z,18.54
2022-10-05T13:50:09.086Z,18.55
2022-10-05T13:52:57.100Z,18.51
2022-10-05T13:55:45.411Z,18.50
2022-10-05T13:58:34.367Z,18.47
2022-10-05T14:01:10.398Z,18.42
2022-10-05T14:04:04.378Z,18.39
2022-10-05T14:06:40.694Z,18.32
2022-10-05T14:09:29.422Z,18.31
2022-10-05T14:12:20.760Z,18.27
2022-10-05T14:14:56.039Z,18.22
2022-10-05T14:17:44.345Z,18.15
2022-10-05T14:20:29.100Z,18.09
2022-10-05T14:23:26.302Z,18.07
2022-10-05T14:26:04.124Z,18.05
2022-10-05T14:28:44.052Z,18.05
2022-10-05T14:31:29.039Z,18.06
2022-10-05T14:34:27.661Z,18.05
2022-10-05T14:37:00.344Z,18.03
2022-10-05T14:39:42.415Z,17.98
2022-10-05T14:42:21.447Z,17.96
2022-10-05T14:45:16.680Z,17.94
2022-10-05T14:47:53.638Z,17.90
2022-10-05T14:50:30.170Z,17.89
2022-10-05T14:53:18.670Z,17.91
2022-10-05T14:56:20.949Z,17.95
2022-10-05T14:59:10.360Z,17.95
2022-10-05T15:01:54.189Z,17.90
2022-10-05T15:04:39.732Z,17.86
2022-10-05T15:07:24.514Z,17.84
2022-10-05T15:10:30.505Z,17.81
2022-10-05T15:13:14.005Z,17.77
2022-10-05T15:15:56.113Z,17.71
2022-10-05T15:18:36.662Z,17.71
2022-10-05T15:21:32.412Z,17.69
2022-10-05T15:24:28.291Z,17.63
2022-10-05T15:27:05.527Z,17.57
2022-10-05T15:29:55.174Z,17.56
2022-10-05T15:32:45.401Z,17.52
2022-10-05T15:35:40.632Z,17.51
2022-10-05T15:38:22.735Z,17.50
2022-10-05T15:41:06.253Z,17.50
2022-10-05T15:43:50.657Z,17.48
2022-10-05T15:46:34.686Z,17.42
2022-10-05T15:49:25.166Z,17.38
2022-10-05T15:52:07.656Z,17.35
2022-10-05T15:55:13.186Z,17.33
2022-10-05T15:57:55.388Z,17.31
2022-10-05T16:00:31.765Z,17.31
2022-10-05T16:03:15.069Z,17.31
2022-10-05T16:06:10.860Z,17.28
2022-10-05T16:09:12.432Z,17.24
2022-10-05T16:12:04.017Z,17.18
2022-10-05T16:14:49.911Z,17.13
2022-10-05T16:17:38.279Z,17.13
2022-10-05T16:20:27.281Z,17.15
2022-10-05T16:23:10.464Z,17.12
2022-10-05T16:25:55.702Z,17.13
2022-10-05T16:28:39.578Z,17.13
2022-10-05T16:31:19.490Z,17.11
2022-10-05T16:34:02.303Z,17.06
2022-10-05T16:36:50.069Z,17.03
2022-10-05T16:39:48.905Z,17.05
2022-10-05T16:42:36.811Z,17.05
2022-10-05T16:45:27.075Z,17.02
2022-10-05T16:48:10.156Z,16.97
2022-10-05T16:50:56.272Z,16.94
2022-10-05T16:53:35.202Z,16.92
2022-10-05T16:56:16.509Z,16.91
2022-10-05T16:59:04.512Z,16.89
2022-10-05T17:01:51.696Z,16.86
2022-10-05T17:04:38.957Z,16.81
2022-10-05T17:07:29.880Z,16.76
2022-10-05T17:10:49.824Z,16.74
2022-10-05T17:13:40.236Z,16.72
2022-10-05T17:16:24.153Z,16.72
2022-10-05T17:19:20.677Z,16.69
2022-10-05T17:22:00.977Z,16.67
2022-10-05T17:24:54.433Z,16.66
2022-10-05T17:27:36.884Z,16.67
2022-10-05T17:30:40.242Z,16.66
2022-10-05T17:33:26.688Z,16.65
2022-10-05T17:36:18.327Z,16.60
2022-10-05T17:39:12.723Z,16.55
2022-10-05T17:41:47.141Z,16.53
2022-10-05T17:44:31.161Z,16.51
2022-10-05T17:47:09.291Z,16.50
2022-10-05T17:50:16.818Z,16.50
2022-10-05T17:53:40.597Z,16.48
2022-10-05T17:56:14.116Z,16.42
2022-10-05T17:59:02.380Z,16.40
2022-10-05T18:01:38.688Z,16.42
2022-10-05T18:05:02.287Z,16.40
2022-10-05T18:07:36.829Z,16.36
2022-10-05T18:10:29.572Z,16.33
2022-10-05T18:13:22.526Z,16.28
2022-10-05T18:15:56.039Z,16.32
2022-10-05T18:19:01.369Z,16.34
2022-10-05T18:21:39.594Z,16.34
2022-10-05T18:24:35.320Z,16.33
2022-10-05T18:27:32.542Z,16.32
2022-10-05T18:30:21.252Z,16.30
2022-10-05T18:33:19.932Z,16.29
2022-10-05T18:36:04.968Z,16.29
2022-10-05T18:38:51.523Z,16.28
2022-10-05T18:41:41.798Z,16.26
2022-10-05T18:44:37.010Z,16.24
2022-10-05T18:47:20.171Z,16.23
2022-10-05T18:50:04.926Z,16.24
2022-10-05T18:52:59.348Z,16.26
2022-10-05T18:55:41.477Z,16.27
2022-10-05T18:58:22.807Z,16.29
2022-10-05T19:01:27.654Z,16.29
2022-10-05T19:04:18.339Z,16.27
2022-10-05T19:06:59.497Z,16.28
2022-10-05T19:09:53.229Z,16.30
2022-10-05T19:12:41.361Z,16.31
2022-10-05T19:15:19.283Z,16.31
2022-10-05T19:18:07.579Z,16.29
2022-10-05T19:20:50.773Z,16.26
2022-10-05T19:23:47.016Z,16.27
2022-10-05T19:26:32.790Z,16.24
2022-10-05T19:29:23.115Z,16.23
2022-10-05T19:32:03.125Z,16.23
2022-10-05T19:34:50.461Z,16.21
2022-10-05T19:37:32.740Z,16.21
2022-10-05T19:40:16.845Z,16.21
2022-10-05T19:43:03.436Z,16.19
2022-10-05T19:45:41.071Z,16.18
2022-10-05T19:48:28.514Z,16.19
2022-10-05T19:51:28.325Z,16.18
2022-10-05T19:54:15.822Z,16.19
2022-10-05T19:56:53.822Z,16.17
2022-10-05T19:59:31.726Z,16.12
2022-10-05T20:02:05.743Z,16.08
2022-10-05T20:04:41.241Z,16.03
2022-10-05T20:07:22.755Z,15.99
2022-10-05T20:09:59.815Z,15.98
2022-10-05T20:12:59.695Z,15.96
2022-10-05T20:15:53.328Z,15.96
2022-10-05T20:19:08.163Z,15.93
2022-10-05T20:21:50.851Z,15.89
2022-10-05T20:24:25.979Z,15.83
2022-10-05T20:27:06.483Z,15.81
2022-10-05T20:29:42.678Z,15.80
2022-10-05T20:32:18.364Z,15.78
2022-10-05T20:34:56.070Z,15.77
2022-10-05T20:37:29.483Z,15.77
2022-10-05T20:40:03.479Z,15.76
2022-10-05T20:42:37.876Z,15.73
2022-10-05T20:45:14.509Z,15.73
2022-10-05T20:47:48.212Z,15.70
2022-10-05T20:50:22.540Z,15.62
2022-10-05T20:53:09.628Z,15.54
2022-10-05T20:55:45.172Z,15.52
2022-10-05T20:58:19.627Z,15.49
2022-10-05T21:01:10.750Z,15.47
2022-10-05T21:03:44.286Z,15.44
2022-10-05T21:06:18.713Z,15.43
2022-10-05T21:09:02.997Z,15.41
2022-10-05T21:11:36.744Z,15.41
2022-10-05T21:14:10.413Z,15.43
2022-10-05T21:16:46.085Z,15.46
2022-10-05T21:19:19.744Z,15.49
2022-10-05T21:21:54.650Z,15.49
2022-10-05T21:24:28.781Z,15.50
2022-10-05T21:27:02.258Z,15.51
2022-10-05T21:29:36.850Z,15.51
2022-10-05T21:32:13.403Z,15.51
2022-10-05T21:34:47.084Z,15.49
2022-10-05T21:37:21.043Z,15.46
2022-10-05T21:39:54.625Z,15.44
2022-10-05T21:42:28.102Z,15.41
2022-10-05T21:45:01.642Z,15.38
2022-10-05T21:47:35.286Z,15.35
2022-10-05T21:50:10.662Z,15.31
2022-10-05T21:52:44.180Z,15.30
2022-10-05T21:55:18.743Z,15.28
2022-10-05T21:57:52.837Z,15.29
2022-10-05T22:00:26.385Z,15.27
2022-10-05T22:03:00.104Z,15.25
2022-10-05T22:05:34.061Z,15.21
2022-10-05T22:08:08.169Z,15.17
2022-10-05T22:10:41.553Z,15.11
2022-10-05T22:13:14.793Z,15.05
2022-10-05T22:15:48.315Z,14.98
2022-10-05T22:18:22.323Z,14.92
2022-10-05T22:20:55.865Z,14.87
2022-10-05T22:23:29.462Z,14.84
2022-10-05T22:26:03.279Z,14.83
2022-10-05T22:28:38.893Z,14.81
2022-10-05T22:31:13.648Z,14.80
2022-10-05T22:33:47.382Z,14.78
2022-10-05T22:36:21.060Z,14.77
2022-10-05T22:38:55.171Z,14.75
2022-10-05T22:41:28.800Z,14.73
2022-10-05T22:44:03.123Z,14.70
2022-10-05T22:46:36.611Z,14.66
2022-10-05T22:49:09.863Z,14.63
2022-10-05T22:51:43.538Z,14.62
2022-10-05T22:54:17.262Z,14.60
2022-10-05T22:56:50.935Z,14.59
2022-10-05T22:59:26.247Z,14.56
2022-10-05T23:01:59.572Z,14.54
2022-10-05T23:04:33.258Z,14.53
2022-10-05T23:07:07.172Z,14.50
2022-10-05T23:09:40.697Z,14.48
2022-10-05T23:12:15.328Z,14.46
2022-10-05T23:14:48.879Z,14.44
2022-10-05T23:17:25.253Z,14.43
2022-10-05T23:19:58.793Z,14.42
2022-10-05T23:22:32.594Z,14.42
2022-10-05T23:25:06.249Z,14.40
2022-10-05T23:27:44.555Z,14.38
2022-10-05T23:30:18.258Z,14.35
2022-10-05T23:32:52.585Z,14.33
2022-10-05T23:35:26.104Z,14.31
2022-10-05T23:37:59.649Z,14.31
2022-10-05T23:40:33.391Z,14.27
2022-10-05T23:43:07.073Z,14.24
2022-10-05T23:45:49.895Z,14.23
2022-10-05T23:48:27.545Z,14.20
2022-10-05T23:51:02.280Z,14.19
2022-10-05T23:53:35.949Z,14.16
2022-10-05T23:56:18.670Z,14.13
2022-10-05T23:58:55.239Z,14.11
